Time;durP1;ratioP1;P1;durP2;ratioP2;P2;SDS_P1;SDS_P2;PMS_P1;PMS_P2;Temp;Humidity;BMP_temperature;BMP_pressure;BME280_temperature;BME280_humidity;BME280_pressure;Samples;Min_cycle;Max_cycle;Signal;HPM_P1;HPM_P2
2022/08/01 00:02:49;;;;;;;1.67;0.85;;;18.80;99.90;;;;;;20822614;28;20060;-39
2022/08/01 00:12:50;;;;;;;2.03;1.08;;;18.70;99.90;;;;;;20818867;28;20033;-39
2022/08/01 00:22:51;;;;;;;4.95;1.40;;;18.70;99.90;;;;;;20826831;28;20118;-39
2022/08/01 00:32:52;;;;;;;5.20;2.05;;;18.60;99.90;;;;;;20824435;28;20037;-39
2022/08/01 00:42:53;;;;;;;6.05;2.25;;;18.60;99.90;;;;;;20825343;28;20052;-39
2022/08/01 00:52:55;;;;;;;3.53;1.35;;;18.60;99.90;;;;;;20822442;28;20060;-39
2022/08/01 01:02:56;;;;;;;3.78;1.42;;;18.50;99.90;;;;;;20838896;28;20119;-38
2022/08/01 01:13:08;;;;;;;3.65;1.50;;;18.50;99.90;;;;;;20839012;28;20061;-39
2022/08/01 01:23:24;;;;;;;3.90;1.63;;;18.50;99.90;;;;;;20840656;28;20139;-39
2022/08/01 01:33:28;;;;;;;3.60;1.40;;;18.50;99.90;;;;;;20837403;28;20940;-38
2022/08/01 01:43:29;;;;;;;5.15;2.75;;;18.50;99.90;;;;;;20840562;28;21808;-39
2022/08/01 01:53:33;;;;;;;7.30;2.95;;;18.50;99.90;;;;;;20852804;28;20443;-38
2022/08/01 02:03:36;;;;;;;2.50;1.10;;;18.50;99.90;;;;;;20849037;28;20222;-40
2022/08/01 02:13:39;;;;;;;4.00;1.50;;;18.50;99.90;;;;;;20850914;28;20044;-40
2022/08/01 02:23:41;;;;;;;2.42;1.25;;;18.60;99.90;;;;;;20849461;28;20071;-39
2022/08/01 02:33:48;;;;;;;2.50;1.02;;;18.60;99.90;;;;;;20849025;28;20462;-39
2022/08/01 02:43:52;;;;;;;1.92;0.70;;;18.50;99.90;;;;;;20850415;28;20048;-39
2022/08/01 02:53:56;;;;;;;2.08;1.05;;;18.50;99.90;;;;;;20846491;28;20032;-38
2022/08/01 03:03:57;;;;;;;2.42;1.20;;;18.50;99.90;;;;;;20870785;28;20041;-40
2022/08/01 03:14:02;;;;;;;2.58;1.05;;;18.40;99.90;;;;;;20877508;28;20032;-39
2022/08/01 03:24:05;;;;;;;2.65;1.25;;;18.40;99.90;;;;;;20874419;28;20033;-39
2022/08/01 03:34:06;;;;;;;3.13;0.88;;;18.40;99.90;;;;;;20849467;28;20134;-39
2022/08/01 03:44:13;;;;;;;2.15;0.50;;;18.30;99.90;;;;;;20845616;28;20396;-39
2022/08/01 03:54:16;;;;;;;2.40;1.00;;;18.20;99.90;;;;;;20846424;28;20044;-39
2022/08/01 04:04:17;;;;;;;1.85;0.90;;;18.10;99.90;;;;;;20837420;28;20924;-39
2022/08/01 04:14:18;;;;;;;1.92;0.68;;;18.10;99.90;;;;;;20836021;28;20072;-39
2022/08/01 04:24:20;;;;;;;1.63;0.68;;;18.00;99.90;;;;;;20835210;28;20044;-39
2022/08/01 04:34:25;;;;;;;2.65;1.05;;;18.00;99.90;;;;;;20835793;28;20029;-38
2022/08/01 04:44:27;;;;;;;2.53;0.90;;;18.10;99.90;;;;;;20836280;28;20454;-40
2022/08/01 04:54:34;;;;;;;1.23;0.45;;;18.20;99.90;;;;;;20851697;28;20122;-39
2022/08/01 05:04:37;;;;;;;0.60;0.13;;;18.20;99.90;;;;;;20864907;28;20040;-39
2022/08/01 05:14:38;;;;;;;0.20;0.10;;;18.00;99.90;;;;;;20839703;28;20396;-38
2022/08/01 05:24:40;;;;;;;0.55;0.13;;;17.90;99.90;;;;;;20825730;28;20202;-39
2022/08/01 05:34:41;;;;;;;0.68;0.20;;;17.90;99.90;;;;;;20843110;28;20098;-38
2022/08/01 05:44:42;;;;;;;0.80;0.28;;;17.90;99.90;;;;;;20861318;28;20087;-38
2022/08/01 05:54:43;;;;;;;0.85;0.47;;;18.00;99.90;;;;;;20860617;28;20090;-39
2022/08/01 06:04:44;;;;;;;1.23;0.30;;;18.10;99.90;;;;;;20857985;28;20045;-38
2022/08/01 06:14:45;;;;;;;2.05;0.50;;;18.20;99.90;;;;;;20850311;28;20060;-38
2022/08/01 06:24:46;;;;;;;1.70;0.82;;;18.30;99.90;;;;;;20818876;28;20056;-39
2022/08/01 06:34:47;;;;;;;3.80;0.98;;;18.40;99.90;;;;;;20839852;28;20060;-39
2022/08/01 06:44:48;;;;;;;5.00;2.22;;;18.40;99.90;;;;;;20848012;28;20759;-38
2022/08/01 06:54:49;;;;;;;7.60;0.77;;;18.50;99.90;;;;;;20837681;28;20130;-39
2022/08/01 07:04:50;;;;;;;3.70;0.75;;;18.50;99.90;;;;;;20869760;28;20384;-39
2022/08/01 07:14:51;;;;;;;1.35;0.60;;;18.40;99.90;;;;;;20878711;28;20095;-38
2022/08/01 07:24:52;;;;;;;1.52;0.60;;;18.50;99.90;;;;;;20887597;28;20036;-39
2022/08/01 07:34:53;;;;;;;1.30;0.50;;;18.50;99.90;;;;;;20874377;28;20037;-39
2022/08/01 07:44:54;;;;;;;2.42;0.98;;;18.30;99.90;;;;;;20881343;28;20048;-39
2022/08/01 07:54:56;;;;;;;1.05;0.40;;;18.60;99.90;;;;;;20881845;28;20033;-39
2022/08/01 08:04:57;;;;;;;1.20;0.30;;;18.80;99.90;;;;;;20876544;28;20090;-38
2022/08/01 08:15:00;;;;;;;0.88;0.30;;;19.20;99.90;;;;;;20859845;28;20527;-39
2022/08/01 08:25:01;;;;;;;1.92;0.55;;;19.40;99.90;;;;;;20817797;28;20531;-38
2022/08/01 08:35:02;;;;;;;1.25;0.40;;;19.40;99.90;;;;;;20848407;28;20041;-39
2022/08/01 08:45:05;;;;;;;1.08;0.30;;;19.50;99.90;;;;;;20856403;28;20036;-38
2022/08/01 08:55:08;;;;;;;1.13;0.30;;;19.70;99.90;;;;;;20847214;28;20118;-38
2022/08/01 09:05:10;;;;;;;1.60;0.35;;;20.00;99.90;;;;;;20857073;28;20098;-38
2022/08/01 09:15:11;;;;;;;1.38;0.57;;;20.40;99.90;;;;;;20854840;28;20067;-38
2022/08/01 09:25:12;;;;;;;1.60;0.50;;;21.00;99.90;;;;;;20869321;28;20122;-38
2022/08/01 09:35:25;;;;;;;0.80;0.30;;;20.70;99.90;;;;;;20864265;28;20041;-38
2022/08/01 09:45:33;;;;;;;1.20;0.32;;;20.60;99.90;;;;;;20868840;28;21027;-38
2022/08/01 09:55:34;;;;;;;1.25;0.32;;;20.70;99.90;;;;;;20861365;28;21251;-38
2022/08/01 10:05:35;;;;;;;1.15;0.52;;;20.80;99.90;;;;;;20847970;28;20107;-38
2022/08/01 10:15:37;;;;;;;2.60;0.55;;;21.10;99.90;;;;;;20865067;28;20040;-38
2022/08/01 10:25:44;;;;;;;2.00;0.57;;;21.20;99.90;;;;;;20872629;28;20535;-38
2022/08/01 10:35:46;;;;;;;1.50;0.43;;;21.50;99.90;;;;;;20877186;28;20045;-38
2022/08/01 10:45:47;;;;;;;2.30;0.40;;;21.80;99.90;;;;;;20874514;28;20073;-39
2022/08/01 10:55:55;;;;;;;3.50;0.50;;;22.10;99.90;;;;;;20884626;28;20040;-39
2022/08/01 11:05:56;;;;;;;2.00;0.50;;;22.10;99.90;;;;;;20875020;28;20503;-38
2022/08/01 11:16:27;;;;;;;1.73;0.70;;;22.20;99.90;;;;;;20876096;28;20071;-39
2022/08/01 11:26:28;;;;;;;0.77;0.28;;;22.30;99.90;;;;;;20874125;28;20684;-39
2022/08/01 11:36:30;;;;;;;0.82;0.38;;;22.50;99.90;;;;;;20868444;28;20399;-37
2022/08/01 11:47:09;;;;;;;0.98;0.40;;;22.50;99.90;;;;;;20869059;28;20037;-37
2022/08/01 11:57:30;;;;;;;1.55;0.40;;;22.90;99.90;;;;;;20864030;28;20037;-37
2022/08/01 12:07:33;;;;;;;0.75;0.28;;;22.40;99.90;;;;;;20868934;28;20286;-37
2022/08/01 12:17:40;;;;;;;0.82;0.32;;;22.80;99.90;;;;;;20860963;28;20045;-37
2022/08/01 12:27:43;;;;;;;0.93;0.30;;;23.60;99.90;;;;;;20816321;28;20507;-37
2022/08/01 12:37:50;;;;;;;0.20;0.10;;;24.30;99.90;;;;;;20822330;28;20084;-37
2022/08/01 12:47:52;;;;;;;0.20;0.10;;;24.00;99.90;;;;;;20863453;28;20087;-37
2022/08/01 12:58:08;;;;;;;0.40;0.10;;;24.00;99.90;;;;;;20837208;28;20090;-37
2022/08/01 13:08:17;;;;;;;2.30;0.22;;;24.00;99.90;;;;;;20841264;28;20434;-37
2022/08/01 13:18:32;;;;;;;1.45;0.40;;;24.30;99.70;;;;;;20846744;28;20850;-37
2022/08/01 13:28:36;;;;;;;1.38;0.47;;;24.30;99.90;;;;;;20845058;28;22063;-36
2022/08/01 13:48:58;;;;;;;0.40;0.20;;;25.40;99.90;;;;;;20856668;28;20052;-35
2022/08/01 13:58:59;;;;;;;0.68;0.25;;;25.50;99.90;;;;;;20860435;28;20032;-35
2022/08/01 14:09:02;;;;;;;0.68;0.20;;;24.70;99.90;;;;;;20868655;28;20044;-36
2022/08/01 14:19:03;;;;;;;0.77;0.38;;;24.30;99.90;;;;;;20862126;28;20040;-36
2022/08/01 14:29:04;;;;;;;0.65;0.20;;;24.10;99.90;;;;;;20865447;28;20040;-37
2022/08/01 14:39:05;;;;;;;1.85;0.30;;;23.50;99.90;;;;;;20863559;28;20371;-37
2022/08/01 14:49:06;;;;;;;2.15;0.60;;;23.50;99.90;;;;;;20862053;28;20049;-37
2022/08/01 14:59:07;;;;;;;0.40;0.17;;;23.40;99.90;;;;;;20857949;28;20097;-37
2022/08/01 15:09:09;;;;;;;0.95;0.32;;;23.20;99.90;;;;;;20855085;28;20484;-37
2022/08/01 15:19:10;;;;;;;1.00;0.50;;;23.10;99.90;;;;;;20858607;28;20578;-37
2022/08/01 15:29:13;;;;;;;1.95;0.60;;;23.10;99.90;;;;;;20854044;28;20508;-37
2022/08/01 15:39:14;;;;;;;0.73;0.20;;;23.10;99.90;;;;;;20853818;28;20037;-37
2022/08/01 15:49:16;;;;;;;0.70;0.20;;;22.80;99.90;;;;;;20835573;28;20828;-38
2022/08/01 15:59:17;;;;;;;0.90;0.25;;;22.80;99.90;;;;;;20848517;28;20038;-37
2022/08/01 16:09:18;;;;;;;1.58;0.38;;;22.70;99.90;;;;;;20824623;28;20037;-37
2022/08/01 16:19:19;;;;;;;0.50;0.13;;;22.60;99.90;;;;;;20830362;28;20037;-39
2022/08/01 16:29:20;;;;;;;0.90;0.30;;;22.50;99.90;;;;;;20873264;28;20036;-39
2022/08/01 16:39:21;;;;;;;0.30;0.20;;;22.30;99.90;;;;;;20868393;28;20504;-38
2022/08/01 16:49:22;;;;;;;0.82;0.30;;;22.10;99.90;;;;;;20825121;28;20362;-39
2022/08/01 16:59:23;;;;;;;1.52;0.30;;;22.00;99.90;;;;;;20809719;28;20079;-39
2022/08/01 17:09:24;;;;;;;1.08;0.30;;;21.90;99.90;;;;;;20794106;28;20086;-39
2022/08/01 17:19:25;;;;;;;0.65;0.32;;;21.60;99.90;;;;;;20790551;28;21770;-39
2022/08/01 17:29:26;;;;;;;1.33;0.30;;;21.50;99.90;;;;;;20812900;28;20120;-39
2022/08/01 17:39:27;;;;;;;1.00;0.32;;;21.40;99.90;;;;;;20819731;28;20764;-39
2022/08/01 17:49:28;;;;;;;0.40;0.17;;;21.40;99.90;;;;;;20785892;28;21884;-39
2022/08/01 17:59:29;;;;;;;1.17;0.30;;;21.30;99.90;;;;;;20849999;28;20029;-39
2022/08/01 18:09:31;;;;;;;1.60;0.50;;;21.30;99.90;;;;;;20825811;28;20040;-38
2022/08/01 18:19:32;;;;;;;1.90;0.40;;;20.90;99.90;;;;;;20836958;28;20709;-38
2022/08/01 18:29:33;;;;;;;0.63;0.20;;;20.60;99.90;;;;;;20844356;28;20674;-38
2022/08/01 18:39:34;;;;;;;0.95;0.20;;;20.40;99.90;;;;;;20809063;28;20366;-39
2022/08/01 18:49:35;;;;;;;2.30;0.60;;;20.40;99.90;;;;;;20825488;28;20451;-40
2022/08/01 18:59:36;;;;;;;1.70;0.45;;;20.20;99.90;;;;;;20818368;28;20071;-38
2022/08/01 19:09:37;;;;;;;0.52;0.30;;;20.10;99.90;;;;;;20825404;28;20071;-38
2022/08/01 19:19:38;;;;;;;1.73;0.30;;;20.00;99.90;;;;;;20822453;28;20041;-38
2022/08/01 19:29:39;;;;;;;0.30;0.10;;;19.70;99.90;;;;;;20838019;28;20044;-39
2022/08/01 19:39:43;;;;;;;0.63;0.20;;;19.50;99.90;;;;;;20782116;28;20122;-38
2022/08/01 19:49:44;;;;;;;0.88;0.20;;;19.30;99.90;;;;;;20830660;28;20041;-39
2022/08/01 19:59:46;;;;;;;4.60;0.60;;;19.10;99.90;;;;;;20830652;28;20045;-38
2022/08/01 20:09:47;;;;;;;1.05;0.35;;;18.80;99.90;;;;;;20830715;28;20138;-38
2022/08/01 20:19:50;;;;;;;0.32;0.10;;;18.70;99.90;;;;;;20844479;28;20142;-38
2022/08/01 20:29:52;;;;;;;2.55;0.40;;;18.50;99.90;;;;;;20871558;28;20431;-39
2022/08/01 20:39:56;;;;;;;1.40;0.40;;;18.20;99.90;;;;;;20880642;28;20187;-38
2022/08/01 20:51:13;;;;;;;0.75;0.35;;;18.00;99.90;;;;;;20881795;28;20071;-39
2022/08/01 21:00:19;;;;;;;2.08;0.68;;;17.60;99.90;;;;;;20913924;28;20918;-38
2022/08/01 21:10:24;;;;;;;0.98;0.35;;;17.40;99.90;;;;;;20908387;28;20052;-37
2022/08/01 21:20:27;;;;;;;1.10;0.30;;;17.20;99.90;;;;;;20928505;28;20033;-38
2022/08/01 21:30:30;;;;;;;1.30;0.28;;;17.10;99.90;;;;;;20932892;28;21810;-38
2022/08/01 21:40:33;;;;;;;0.70;0.30;;;16.90;99.90;;;;;;20929479;28;20043;-38
2022/08/01 21:50:43;;;;;;;1.52;0.50;;;16.70;99.90;;;;;;20925878;28;20500;-38
2022/08/01 22:00:52;;;;;;;1.13;0.40;;;16.60;99.90;;;;;;20896097;28;20040;-38
2022/08/01 22:10:58;;;;;;;0.73;0.32;;;16.50;99.90;;;;;;20885050;28;20090;-37
2022/08/01 22:21:00;;;;;;;0.90;0.38;;;16.30;99.90;;;;;;20876288;28;20099;-37
2022/08/01 22:31:02;;;;;;;0.85;0.30;;;16.30;99.90;;;;;;20870700;28;20046;-37
2022/08/01 22:41:14;;;;;;;1.10;0.40;;;16.20;99.90;;;;;;20867458;28;20045;-37
2022/08/01 22:51:47;;;;;;;1.48;0.25;;;16.20;99.90;;;;;;20862864;28;21738;-38
2022/08/01 23:01:50;;;;;;;0.98;0.28;;;16.10;99.90;;;;;;20858624;28;20859;-38
2022/08/01 23:11:52;;;;;;;1.10;0.57;;;16.20;99.90;;;;;;20870985;28;20287;-38
2022/08/01 23:21:53;;;;;;;0.43;0.20;;;16.20;99.90;;;;;;20867276;28;20064;-37
2022/08/01 23:31:54;;;;;;;0.85;0.35;;;16.20;99.90;;;;;;20868000;28;20037;-37
2022/08/01 23:41:55;;;;;;;0.65;0.28;;;16.10;99.90;;;;;;20865201;28;20028;-37
2022/08/01 23:51:56;;;;;;;0.93;0.10;;;16.20;99.90;;;;;;20856254;28;20071;-37
